Time;durP1;ratioP1;P1;durP2;ratioP2;P2;SDS_P1;SDS_P2;PMS_P1;PMS_P2;Temp;Humidity;BMP_temperature;BMP_pressure;BME280_temperature;BME280_humidity;BME280_pressure;Samples;Min_cycle;Max_cycle;Signal;HPM_P1;HPM_P2
2022/07/09 00:00:02;;;;;;;7.72;4.63;;;;;;;24.11;52.71;102879.31;5069850;28;20491;-65
2022/07/09 00:02:27;;;;;;;8.93;4.95;;;;;;;24.01;53.43;102867.41;5070717;28;20062;-65
2022/07/09 00:04:53;;;;;;;10.30;4.72;;;;;;;24.07;53.27;102875.44;5069795;28;20033;-67
2022/07/09 00:07:18;;;;;;;6.68;4.72;;;;;;;23.87;54.18;102878.03;5070773;28;20044;-66
2022/07/09 00:09:43;;;;;;;8.65;4.35;;;;;;;24.09;52.91;102869.69;5070138;28;20044;-65
2022/07/09 00:12:09;;;;;;;13.07;4.85;;;;;;;23.89;54.03;102872.25;5070524;28;20415;-65
2022/07/09 00:14:35;;;;;;;9.45;4.85;;;;;;;24.08;53.26;102865.25;5069742;28;20052;-64
2022/07/09 00:17:02;;;;;;;9.45;5.22;;;;;;;24.09;53.18;102867.75;5070474;28;20563;-65
2022/07/09 00:19:28;;;;;;;9.10;5.03;;;;;;;23.47;54.98;102869.47;5070027;28;20190;-67
2022/07/09 00:21:53;;;;;;;7.28;5.10;;;;;;;23.85;54.01;102860.16;5070100;28;20541;-65
2022/07/09 00:24:19;;;;;;;10.07;4.75;;;;;;;24.03;52.92;102862.50;5077805;28;20036;-65
2022/07/09 00:26:44;;;;;;;10.02;5.18;;;;;;;23.89;53.43;102869.50;5081500;28;20024;-65
2022/07/09 00:29:10;;;;;;;10.65;4.70;;;;;;;23.93;53.03;102871.47;5070277;28;20471;-65
2022/07/09 00:31:35;;;;;;;11.32;4.97;;;;;;;23.97;52.37;102861.63;5069966;28;20076;-65
2022/07/09 00:34:00;;;;;;;11.10;5.55;;;;;;;23.99;52.80;102870.41;5069687;28;20043;-65
2022/07/09 00:36:26;;;;;;;8.32;4.53;;;;;;;23.63;53.69;102865.75;5069947;28;20059;-66
2022/07/09 00:38:51;;;;;;;8.02;5.15;;;;;;;23.81;53.17;102870.00;5069554;28;20025;-65
2022/07/09 00:41:17;;;;;;;9.77;5.18;;;;;;;23.82;53.46;102857.94;5070457;28;20036;-65
2022/07/09 00:43:49;;;;;;;6.60;4.80;;;;;;;23.44;54.68;102854.38;5069545;28;20530;-65
2022/07/09 00:46:16;;;;;;;8.55;5.72;;;;;;;23.70;53.66;102849.91;5069439;28;20132;-65
2022/07/09 00:48:41;;;;;;;7.47;4.53;;;;;;;23.78;52.80;102846.66;5069549;28;20123;-65
2022/07/09 00:51:07;;;;;;;8.75;4.75;;;;;;;23.77;52.54;102842.25;5069678;28;20512;-65
2022/07/09 00:53:33;;;;;;;6.35;4.53;;;;;;;23.64;52.97;102833.66;5070165;28;20039;-66
2022/07/09 00:56:00;;;;;;;9.65;4.90;;;;;;;23.51;53.41;102852.22;5069770;28;20040;-66
2022/07/09 00:58:27;;;;;;;8.40;5.05;;;;;;;23.66;52.94;102857.03;5069542;28;20086;-65
2022/07/09 01:00:53;;;;;;;10.18;5.22;;;;;;;23.42;53.62;102858.47;5051864;28;20076;-66
2022/07/09 01:03:18;;;;;;;11.30;4.78;;;;;;;23.43;54.01;102849.97;5069868;28;20493;-65
2022/07/09 01:05:44;;;;;;;12.68;5.32;;;;;;;23.33;54.10;102847.13;5069339;28;20029;-66
2022/07/09 01:08:09;;;;;;;10.10;5.20;;;;;;;23.47;54.31;102839.28;5069889;28;20059;-65
2022/07/09 01:10:35;;;;;;;7.85;4.85;;;;;;;23.49;53.66;102831.63;5034858;28;20041;-65
2022/07/09 01:13:04;;;;;;;6.57;4.63;;;;;;;23.41;53.80;102830.19;5069274;28;20044;-65
2022/07/09 01:15:30;;;;;;;14.93;4.45;;;;;;;23.36;54.17;102832.91;5068331;28;20047;-66
2022/07/09 01:17:57;;;;;;;7.15;5.63;;;;;;;23.38;53.61;102830.72;5052148;28;20492;-66
2022/07/09 01:20:23;;;;;;;8.40;5.82;;;;;;;23.31;54.79;102834.78;5072644;28;20032;-66
2022/07/09 01:22:49;;;;;;;6.63;4.50;;;;;;;23.36;53.38;102824.69;5071982;28;20093;-65
2022/07/09 01:25:17;;;;;;;7.60;5.40;;;;;;;23.34;53.28;102828.75;5087316;28;20119;-64
2022/07/09 01:27:42;;;;;;;9.38;4.78;;;;;;;23.30;53.34;102833.91;5075905;28;20094;-65
2022/07/09 01:30:08;;;;;;;6.72;4.80;;;;;;;23.22;53.80;102822.59;5072182;28;20032;-65
2022/07/09 01:32:34;;;;;;;7.55;4.65;;;;;;;23.27;53.59;102822.66;5072645;28;20028;-64
2022/07/09 01:34:59;;;;;;;9.38;5.22;;;;;;;23.23;53.44;102825.06;5072134;28;20043;-66
2022/07/09 01:37:25;;;;;;;7.13;4.57;;;;;;;23.20;53.84;102813.78;5071771;28;20396;-66
2022/07/09 01:39:50;;;;;;;10.45;5.50;;;;;;;23.24;54.13;102821.25;5071892;28;20075;-65
2022/07/09 01:42:17;;;;;;;8.13;5.20;;;;;;;23.37;53.57;102820.03;5071533;28;20530;-65
2022/07/09 01:44:42;;;;;;;8.07;4.32;;;;;;;23.23;53.28;102819.56;5070522;28;20071;-66
2022/07/09 01:47:07;;;;;;;7.68;4.82;;;;;;;23.06;54.02;102823.53;5053382;28;20048;-65
2022/07/09 01:49:33;;;;;;;8.63;4.65;;;;;;;22.98;54.71;102813.03;5070660;28;20056;-65
2022/07/09 01:51:58;;;;;;;9.27;5.20;;;;;;;23.10;53.90;102822.75;5070516;28;20041;-65
2022/07/09 01:54:23;;;;;;;7.03;5.10;;;;;;;23.06;54.55;102823.53;5070871;28;20039;-66
2022/07/09 01:56:49;;;;;;;9.27;5.68;;;;;;;23.06;54.51;102821.63;5071017;28;20040;-66
2022/07/09 01:59:14;;;;;;;10.88;5.55;;;;;;;22.93;55.12;102821.22;5070800;28;20032;-65
2022/07/09 02:01:40;;;;;;;8.90;5.55;;;;;;;22.90;55.52;102821.75;5070003;28;20049;-65
2022/07/09 02:04:05;;;;;;;7.70;5.72;;;;;;;22.92;55.16;102819.59;5070340;28;20048;-66
2022/07/09 02:06:30;;;;;;;14.00;5.05;;;;;;;22.93;55.49;102821.22;5070345;28;20041;-64
2022/07/09 02:08:56;;;;;;;15.50;5.82;;;;;;;22.97;55.26;102812.22;5070444;28;20400;-66
2022/07/09 02:11:21;;;;;;;6.38;5.40;;;;;;;23.08;55.10;102816.72;5071094;28;20036;-64
2022/07/09 02:13:46;;;;;;;11.18;6.30;;;;;;;23.03;55.20;102819.41;5032700;28;1084087;-66
2022/07/09 02:16:12;;;;;;;9.65;5.45;;;;;;;23.23;54.82;102816.84;5071068;28;20511;-65
2022/07/09 02:18:37;;;;;;;8.30;5.50;;;;;;;23.29;54.92;102815.78;5070973;28;20036;-66
2022/07/09 02:21:05;;;;;;;7.85;6.47;;;;;;;23.16;55.57;102799.78;5071518;28;20044;-66
2022/07/09 02:23:30;;;;;;;10.43;6.55;;;;;;;23.17;54.77;102815.16;5072425;28;20520;-65
2022/07/09 02:25:55;;;;;;;11.82;6.60;;;;;;;23.42;54.39;102804.41;5090228;28;20032;-66
2022/07/09 02:28:21;;;;;;;9.18;6.03;;;;;;;23.18;55.67;102811.31;5071029;28;20242;-65
2022/07/09 02:30:46;;;;;;;9.52;6.80;;;;;;;22.91;56.33;102802.28;5071597;28;20511;-65
2022/07/09 02:33:12;;;;;;;10.23;6.43;;;;;;;23.29;55.15;102804.00;5071385;28;20032;-65
2022/07/09 02:35:37;;;;;;;7.72;5.63;;;;;;;22.97;56.67;102801.25;5071026;28;20499;-68
2022/07/09 02:38:02;;;;;;;11.80;6.50;;;;;;;23.22;55.26;102796.00;5071427;28;20023;-67
2022/07/09 02:40:28;;;;;;;14.60;6.38;;;;;;;23.23;55.85;102799.56;5071141;28;20519;-67
2022/07/09 02:42:53;;;;;;;12.18;6.90;;;;;;;23.18;55.36;102800.34;5071048;28;20043;-65
2022/07/09 02:45:19;;;;;;;10.07;5.75;;;;;;;23.10;55.92;102795.34;5071454;28;20036;-66
2022/07/09 02:47:45;;;;;;;10.88;6.20;;;;;;;23.30;54.61;102798.25;5070615;28;20602;-66
2022/07/09 02:50:10;;;;;;;8.40;5.70;;;;;;;22.91;55.70;102802.28;5071788;28;20738;-65
2022/07/09 02:52:35;;;;;;;11.02;6.22;;;;;;;23.18;55.39;102805.81;5070638;28;20044;-66
2022/07/09 02:55:01;;;;;;;8.00;5.57;;;;;;;23.00;55.95;102806.22;5070341;28;20051;-64
2022/07/09 02:57:26;;;;;;;10.75;6.07;;;;;;;23.30;55.20;102795.50;5070734;28;20032;-65
2022/07/09 02:59:52;;;;;;;12.05;6.63;;;;;;;23.19;55.03;102795.69;5070237;28;20055;-65
2022/07/09 03:02:17;;;;;;;8.60;5.80;;;;;;;23.34;54.79;102793.09;5071147;28;20033;-65
2022/07/09 03:04:42;;;;;;;11.18;6.35;;;;;;;23.42;54.46;102795.34;5070456;28;20029;-65
2022/07/09 03:07:08;;;;;;;13.02;6.15;;;;;;;23.39;54.74;102790.38;5070159;28;20499;-65
2022/07/09 03:09:33;;;;;;;12.20;6.03;;;;;;;23.22;54.90;102793.25;5069997;28;20043;-65
2022/07/09 03:11:58;;;;;;;13.02;6.97;;;;;;;23.33;55.21;102791.44;5070017;28;20102;-64
2022/07/09 03:14:24;;;;;;;9.65;6.30;;;;;;;23.30;54.92;102794.66;5070456;28;20041;-65
2022/07/09 03:16:49;;;;;;;9.07;6.55;;;;;;;23.12;55.84;102795.91;5069915;28;20060;-66
2022/07/09 03:19:15;;;;;;;12.95;6.55;;;;;;;23.03;56.56;102791.16;5070036;28;20502;-67
2022/07/09 03:21:40;;;;;;;15.20;5.93;;;;;;;23.22;55.46;102787.75;5069683;28;20064;-65
2022/07/09 03:24:08;;;;;;;12.40;6.82;;;;;;;23.28;56.16;102788.63;5069849;28;20056;-67
2022/07/09 03:26:33;;;;;;;15.07;7.38;;;;;;;23.26;55.68;102799.88;5069953;28;20046;-65
2022/07/09 03:28:59;;;;;;;11.65;6.82;;;;;;;23.44;55.09;102794.00;5070068;28;20048;-66
2022/07/09 03:31:24;;;;;;;9.25;6.45;;;;;;;23.50;54.63;102790.22;5069474;28;20518;-65
2022/07/09 03:33:53;;;;;;;9.43;6.85;;;;;;;23.64;54.71;102781.50;5070106;28;20040;-65
2022/07/09 03:36:18;;;;;;;12.90;7.53;;;;;;;23.43;55.36;102781.34;5051893;28;20039;-67
2022/07/09 03:38:44;;;;;;;8.57;6.72;;;;;;;23.49;54.69;102777.56;5069378;28;20388;-66
2022/07/09 03:41:09;;;;;;;9.93;7.78;;;;;;;23.11;56.25;102777.81;5069036;28;20035;-66
2022/07/09 03:43:34;;;;;;;8.27;6.70;;;;;;;23.26;55.63;102768.84;5069183;28;20080;-64
2022/07/09 03:46:00;;;;;;;14.90;6.63;;;;;;;23.12;56.32;102771.22;5069396;28;20404;-66
2022/07/09 03:48:25;;;;;;;10.35;7.65;;;;;;;23.33;55.44;102770.31;5069336;28;20371;-65
2022/07/09 03:50:51;;;;;;;12.73;8.20;;;;;;;23.37;55.47;102767.88;5069135;28;20047;-65
2022/07/09 03:53:16;;;;;;;12.75;8.00;;;;;;;22.66;57.93;102769.16;5070273;28;20024;-65
2022/07/09 03:55:42;;;;;;;11.52;8.27;;;;;;;23.04;56.46;102766.22;5069025;28;20048;-65
2022/07/09 03:58:07;;;;;;;14.40;8.38;;;;;;;23.33;55.71;102769.50;5069074;28;20570;-66
2022/07/09 04:00:33;;;;;;;11.82;7.22;;;;;;;23.26;55.71;102777.06;5068761;28;20055;-64
2022/07/09 04:02:58;;;;;;;9.65;7.00;;;;;;;23.48;54.83;102773.16;5068976;28;20123;-66
2022/07/09 04:05:24;;;;;;;10.45;6.75;;;;;;;23.60;54.55;102774.88;5069149;28;20024;-65
2022/07/09 04:07:49;;;;;;;9.65;7.30;;;;;;;22.87;56.82;102768.25;5068944;28;20032;-64
2022/07/09 04:10:15;;;;;;;13.15;7.95;;;;;;;23.30;56.13;102753.50;5068445;28;20041;-64
2022/07/09 04:12:40;;;;;;;9.45;7.05;;;;;;;23.19;56.51;102754.53;5068323;28;20414;-65
2022/07/09 04:15:06;;;;;;;15.18;8.27;;;;;;;23.35;55.44;102750.84;5068222;28;20041;-65
2022/07/09 04:17:31;;;;;;;11.05;7.43;;;;;;;23.40;55.67;102754.47;5068583;28;20492;-65
2022/07/09 04:19:57;;;;;;;12.30;8.10;;;;;;;23.23;56.24;102752.94;5050642;28;20041;-65
2022/07/09 04:22:23;;;;;;;12.43;8.10;;;;;;;22.89;57.03;102748.78;5088869;28;20077;-65
2022/07/09 04:24:48;;;;;;;15.27;8.27;;;;;;;22.86;57.07;102749.34;5089292;28;20036;-65
2022/07/09 04:27:13;;;;;;;9.40;7.15;;;;;;;23.36;55.56;102747.84;5058304;28;20024;-65
2022/07/09 04:29:39;;;;;;;13.10;8.20;;;;;;;23.50;55.32;102740.81;5068479;28;20507;-66
2022/07/09 04:32:04;;;;;;;15.25;7.93;;;;;;;23.33;55.84;102753.84;5068706;28;20483;-65
2022/07/09 04:34:30;;;;;;;11.10;7.25;;;;;;;23.59;54.60;102751.28;5068076;28;20044;-65
2022/07/09 04:36:55;;;;;;;12.48;8.75;;;;;;;23.50;55.44;102746.28;5068281;28;20348;-65
2022/07/09 04:39:24;;;;;;;14.18;7.18;;;;;;;23.21;56.12;102746.88;5068007;28;20121;-65
2022/07/09 04:41:49;;;;;;;12.07;7.35;;;;;;;23.51;55.14;102742.44;5068363;28;20036;-65
2022/07/09 04:44:15;;;;;;;12.80;7.57;;;;;;;23.48;55.47;102742.16;5068532;28;20553;-65
2022/07/09 04:46:42;;;;;;;9.75;6.85;;;;;;;23.59;55.25;102740.31;5067701;28;20101;-66
2022/07/09 04:49:08;;;;;;;10.50;7.05;;;;;;;23.56;55.29;102747.13;5068280;28;20067;-64
2022/07/09 04:51:33;;;;;;;9.90;7.55;;;;;;;23.67;55.20;102740.59;5067843;28;20429;-62
2022/07/09 04:53:59;;;;;;;10.32;7.60;;;;;;;23.84;54.54;102734.94;5068412;28;20496;-62
2022/07/09 04:56:24;;;;;;;10.88;7.32;;;;;;;23.70;55.21;102731.84;5068437;28;20085;-64
2022/07/09 04:58:52;;;;;;;13.63;7.28;;;;;;;24.01;54.37;102738.28;5068248;28;20086;-62
2022/07/09 05:01:19;;;;;;;11.38;6.70;;;;;;;24.08;54.04;102738.88;5068176;28;20036;-62
2022/07/09 05:03:46;;;;;;;12.02;7.53;;;;;;;23.93;54.92;102745.13;5067498;28;20048;-62
2022/07/09 05:06:13;;;;;;;15.68;8.00;;;;;;;24.05;54.75;102743.03;5049409;28;20573;-64
2022/07/09 05:08:39;;;;;;;13.30;7.45;;;;;;;23.94;54.99;102745.97;5067877;28;20149;-62
2022/07/09 05:11:05;;;;;;;12.57;7.32;;;;;;;23.68;56.16;102744.19;5068499;28;20403;-63
2022/07/09 05:13:30;;;;;;;12.10;7.32;;;;;;;23.58;56.09;102738.63;5067325;28;20032;-62
2022/07/09 05:15:55;;;;;;;11.32;7.75;;;;;;;23.76;55.68;102738.19;5075679;28;20403;-62
2022/07/09 05:18:21;;;;;;;11.10;7.28;;;;;;;23.42;56.87;102737.72;5047749;28;20036;-62
2022/07/09 05:20:46;;;;;;;11.27;7.43;;;;;;;23.61;55.86;102736.19;5047866;28;20037;-62
2022/07/09 05:23:11;;;;;;;13.98;8.23;;;;;;;23.47;56.08;102745.97;5047998;28;20029;-62
2022/07/09 05:25:37;;;;;;;12.85;7.72;;;;;;;23.65;56.21;102741.94;5047551;28;20059;-64
2022/07/09 05:28:02;;;;;;;8.93;6.60;;;;;;;24.05;55.06;102740.28;5066506;28;20035;-63
2022/07/09 05:30:28;;;;;;;10.60;6.63;;;;;;;24.23;54.73;102741.72;5068031;28;20387;-63
2022/07/09 05:32:53;;;;;;;10.90;7.70;;;;;;;24.18;54.58;102727.94;5067431;28;20461;-63
2022/07/09 05:35:18;;;;;;;16.10;7.32;;;;;;;23.85;55.50;102725.59;5050709;28;20044;-62
2022/07/09 05:37:44;;;;;;;8.18;6.15;;;;;;;24.06;55.08;102730.94;5067340;28;20471;-63
2022/07/09 05:40:11;;;;;;;6.55;5.78;;;;;;;24.18;54.57;102737.00;5067713;28;20559;-62
2022/07/09 05:42:37;;;;;;;8.52;5.25;;;;;;;24.46;54.05;102748.63;5067621;28;20037;-63
2022/07/09 05:45:03;;;;;;;8.38;6.05;;;;;;;23.86;55.55;102738.25;5067316;28;20037;-63
2022/07/09 05:47:28;;;;;;;8.18;6.20;;;;;;;24.22;54.76;102737.28;5067986;28;20511;-63
2022/07/09 05:49:54;;;;;;;8.80;5.97;;;;;;;24.52;54.14;102736.53;5067655;28;20049;-64
2022/07/09 05:52:19;;;;;;;8.55;5.57;;;;;;;24.80;53.38;102742.41;5068161;28;20377;-62
2022/07/09 05:54:44;;;;;;;8.93;6.65;;;;;;;24.83;53.04;102744.59;5067484;28;20500;-61
2022/07/09 05:57:10;;;;;;;12.65;7.60;;;;;;;24.57;54.09;102751.13;5067448;28;20041;-62
2022/07/09 05:59:35;;;;;;;9.40;5.88;;;;;;;24.38;54.12;102747.22;5067293;28;20283;-61
2022/07/09 06:02:02;;;;;;;8.25;5.70;;;;;;;24.40;54.70;102754.13;5067636;28;20480;-62
2022/07/09 06:04:28;;;;;;;9.20;5.10;;;;;;;24.79;53.58;102748.97;5069787;28;20527;-64
2022/07/09 06:06:54;;;;;;;8.30;5.28;;;;;;;24.57;53.89;102756.63;5070782;28;20068;-63
2022/07/09 06:09:19;;;;;;;10.43;5.22;;;;;;;24.86;53.24;102755.06;5071039;28;20086;-62
2022/07/09 06:11:44;;;;;;;10.23;5.07;;;;;;;25.05;52.90;102750.66;5070543;28;20047;-62
2022/07/09 06:14:10;;;;;;;8.43;5.72;;;;;;;25.06;52.88;102744.03;5070952;28;20051;-63
2022/07/09 06:16:36;;;;;;;7.53;5.00;;;;;;;24.94;52.54;102739.94;5084072;28;20040;-61
2022/07/09 06:19:01;;;;;;;9.60;5.72;;;;;;;24.87;52.74;102731.94;5090922;28;20039;-62
2022/07/09 06:21:27;;;;;;;9.23;5.22;;;;;;;25.14;52.18;102740.72;5072881;28;20460;-63
2022/07/09 06:23:52;;;;;;;7.32;5.53;;;;;;;25.21;52.11;102745.97;5091027;28;20081;-62
2022/07/09 06:26:17;;;;;;;8.13;5.25;;;;;;;24.98;53.15;102744.59;5087393;28;20035;-62
2022/07/09 06:28:43;;;;;;;9.90;5.50;;;;;;;24.62;53.97;102748.38;5070389;28;20048;-64
2022/07/09 06:31:08;;;;;;;8.13;5.35;;;;;;;24.14;56.03;102757.03;5070901;28;20488;-62
2022/07/09 06:33:34;;;;;;;8.00;4.75;;;;;;;23.86;56.47;102752.78;5069838;28;20045;-63
2022/07/09 06:35:59;;;;;;;6.55;4.95;;;;;;;24.48;55.23;102757.44;5051566;28;20044;-61
2022/07/09 06:38:27;;;;;;;6.88;5.82;;;;;;;24.94;53.74;102751.72;5070699;28;20039;-61
2022/07/09 06:40:54;;;;;;;8.98;5.38;;;;;;;24.73;54.51;102747.31;5069982;28;20032;-63
2022/07/09 06:43:19;;;;;;;11.38;5.93;;;;;;;25.20;53.20;102747.03;5070681;28;20029;-62
2022/07/09 06:45:45;;;;;;;8.15;5.80;;;;;;;25.02;54.13;102739.38;5069919;28;20526;-63
2022/07/09 06:48:10;;;;;;;5.95;4.28;;;;;;;24.92;53.03;102745.69;5070181;28;20029;-62
2022/07/09 06:50:35;;;;;;;8.48;4.53;;;;;;;25.18;52.96;102752.00;5069678;28;20036;-62
2022/07/09 06:53:01;;;;;;;4.82;4.18;;;;;;;25.10;52.75;102756.13;5070222;28;20448;-62
2022/07/09 06:55:28;;;;;;;7.88;4.80;;;;;;;24.93;53.39;102749.25;5069401;28;20115;-63
2022/07/09 06:57:53;;;;;;;7.20;3.85;;;;;;;25.17;52.85;102751.19;5069403;28;20029;-63
2022/07/09 07:00:18;;;;;;;7.57;3.83;;;;;;;25.33;53.19;102752.00;5069716;28;20029;-62
2022/07/09 07:02:44;;;;;;;6.05;4.40;;;;;;;25.59;52.38;102759.13;5068850;28;20074;-62
2022/07/09 07:05:09;;;;;;;5.32;4.35;;;;;;;24.96;54.19;102759.72;5070225;28;20063;-61
2022/07/09 07:07:35;;;;;;;6.53;4.20;;;;;;;24.96;54.23;102755.03;5069308;28;20048;-62
2022/07/09 07:10:00;;;;;;;4.10;3.60;;;;;;;25.19;53.17;102754.50;5069511;28;20029;-62
2022/07/09 07:12:25;;;;;;;3.97;3.03;;;;;;;24.64;53.62;102751.69;5069441;28;20484;-60
2022/07/09 07:14:51;;;;;;;6.25;3.33;;;;;;;25.29;52.08;102753.66;5068239;28;20057;-62
2022/07/09 07:17:17;;;;;;;8.35;2.78;;;;;;;26.07;49.92;102739.16;5090067;28;20036;-62
2022/07/09 07:19:42;;;;;;;5.93;2.45;;;;;;;25.17;51.52;102748.44;5089419;28;20044;-62
2022/07/09 07:22:07;;;;;;;4.13;2.15;;;;;;;25.94;49.99;102748.00;5070552;28;20055;-61
2022/07/09 07:24:33;;;;;;;4.90;2.50;;;;;;;25.27;51.29;102745.69;5069348;28;20407;-62
2022/07/09 07:26:58;;;;;;;3.60;2.00;;;;;;;25.75;49.83;102735.94;5068469;28;20033;-62
2022/07/09 07:29:24;;;;;;;7.47;1.98;;;;;;;26.13;49.59;102730.84;5069691;28;20040;-62
2022/07/09 07:31:49;;;;;;;4.43;2.03;;;;;;;24.93;51.64;102746.50;5069069;28;20029;-63
2022/07/09 07:34:15;;;;;;;10.25;2.20;;;;;;;25.40;50.08;102743.47;5068466;28;20024;-63
2022/07/09 07:36:41;;;;;;;3.17;1.58;;;;;;;25.50;49.84;102737.94;5068347;28;20389;-62
2022/07/09 07:39:06;;;;;;;3.35;1.60;;;;;;;26.00;49.12;102735.84;5068199;28;20111;-62
2022/07/09 07:41:32;;;;;;;3.15;1.90;;;;;;;26.18;48.55;102725.31;5069884;28;20385;-63
2022/07/09 07:43:57;;;;;;;3.92;2.42;;;;;;;26.31;48.36;102722.75;5068739;28;20063;-60
2022/07/09 07:46:23;;;;;;;4.43;2.78;;;;;;;26.50;48.27;102722.91;5047518;28;20395;-61
2022/07/09 07:48:48;;;;;;;4.72;2.97;;;;;;;25.61;50.76;102734.09;5068408;28;20081;-62
2022/07/09 07:51:13;;;;;;;5.75;2.75;;;;;;;25.66;50.68;102728.53;5067891;28;20550;-63
2022/07/09 07:53:39;;;;;;;4.32;2.80;;;;;;;26.38;49.22;102726.00;5068117;28;20086;-61
2022/07/09 07:56:05;;;;;;;4.65;2.60;;;;;;;26.12;49.69;102723.69;5068354;28;20017;-63
2022/07/09 07:58:31;;;;;;;9.57;2.50;;;;;;;26.06;49.22;102723.72;5067827;28;20496;-62
2022/07/09 08:00:57;;;;;;;3.28;1.90;;;;;;;25.81;49.46;102726.56;5049072;28;20066;-62
2022/07/09 08:03:23;;;;;;;5.95;1.90;;;;;;;26.52;48.29;102720.69;5067862;28;20404;-62
2022/07/09 08:05:48;;;;;;;5.63;2.40;;;;;;;26.08;49.11;102721.50;5070369;28;20514;-61
2022/07/09 08:08:13;;;;;;;4.60;2.08;;;;;;;26.40;48.19;102729.31;5068601;28;20028;-61
2022/07/09 08:10:39;;;;;;;5.85;2.65;;;;;;;26.70;48.11;102714.50;5067304;28;20500;-62
2022/07/09 08:13:04;;;;;;;3.53;2.63;;;;;;;25.87;49.96;102722.69;5067957;28;20404;-64
2022/07/09 08:15:30;;;;;;;13.32;2.67;;;;;;;26.31;48.32;102722.75;5069196;28;20403;-63
2022/07/09 08:17:55;;;;;;;4.00;2.40;;;;;;;25.93;49.33;102712.44;5066669;28;20033;-62
2022/07/09 08:20:21;;;;;;;3.25;2.38;;;;;;;26.70;47.43;102714.50;5067908;28;20033;-62
2022/07/09 08:22:46;;;;;;;3.13;1.75;;;;;;;26.72;47.08;102718.66;5056870;28;20041;-61
2022/07/09 08:25:12;;;;;;;5.35;2.40;;;;;;;26.17;49.04;102732.75;5060009;28;20384;-62
2022/07/09 08:27:37;;;;;;;4.38;2.42;;;;;;;26.54;48.26;102730.31;5067275;28;20400;-62
2022/07/09 08:30:03;;;;;;;9.75;2.53;;;;;;;26.20;48.71;102720.34;5067938;28;20392;-62
2022/07/09 08:32:29;;;;;;;5.82;3.00;;;;;;;26.26;48.85;102720.03;5067205;28;20043;-62
2022/07/09 08:34:55;;;;;;;8.23;3.22;;;;;;;26.19;49.03;102727.78;5068134;28;20139;-61
2022/07/09 08:37:20;;;;;;;6.70;2.60;;;;;;;26.71;48.37;102728.00;5068416;28;20071;-63
2022/07/09 08:39:46;;;;;;;5.88;2.42;;;;;;;25.98;50.03;102715.19;5068358;28;20048;-62
2022/07/09 08:42:11;;;;;;;5.28;2.72;;;;;;;26.57;48.75;102707.72;5068419;28;20492;-61
2022/07/09 08:44:42;;;;;;;6.90;2.70;;;;;;;26.34;49.12;102708.41;5068131;28;20047;-64
2022/07/09 08:47:10;;;;;;;6.32;2.38;;;;;;;26.49;48.61;102705.56;5068566;28;20028;-62
2022/07/09 08:49:37;;;;;;;2.58;1.95;;;;;;;25.64;50.32;102709.56;5068037;28;20507;-62
2022/07/09 08:52:03;;;;;;;3.25;1.65;;;;;;;26.15;49.38;102714.84;5067467;28;20064;-61
2022/07/09 08:54:31;;;;;;;3.53;1.80;;;;;;;25.77;50.50;102724.63;5067184;28;20094;-62
2022/07/09 08:56:56;;;;;;;3.50;1.50;;;;;;;26.13;49.17;102720.66;5067616;28;20025;-62
2022/07/09 08:59:21;;;;;;;5.40;1.50;;;;;;;26.03;48.10;102727.00;5067664;28;20024;-62
2022/07/09 09:01:47;;;;;;;1.27;1.00;;;;;;;25.67;48.57;102721.94;5067566;28;20037;-62
2022/07/09 09:04:12;;;;;;;1.85;0.75;;;;;;;24.98;50.09;102728.06;5065535;28;20037;-61
2022/07/09 09:06:39;;;;;;;4.13;0.75;;;;;;;25.31;49.28;102720.34;5066897;28;20040;-60
2022/07/09 09:09:08;;;;;;;2.17;1.00;;;;;;;25.76;48.68;102723.84;5066420;28;20365;-61
2022/07/09 09:11:36;;;;;;;3.55;1.80;;;;;;;25.95;48.03;102715.75;5066766;28;20405;-61
2022/07/09 09:14:02;;;;;;;3.78;1.30;;;;;;;25.49;48.89;102722.53;5065912;28;20060;-61
2022/07/09 09:16:27;;;;;;;1.65;0.80;;;;;;;25.54;49.29;102734.38;5068178;28;20515;-61
2022/07/09 09:18:53;;;;;;;3.58;1.40;;;;;;;25.69;49.06;102719.75;5066264;28;20090;-60
2022/07/09 09:21:24;;;;;;;3.75;1.08;;;;;;;25.35;49.54;102718.69;5065982;28;20039;-62
2022/07/09 09:23:55;;;;;;;5.57;1.20;;;;;;;25.12;50.67;102728.34;5066380;28;20036;-61
2022/07/09 09:26:24;;;;;;;;;;;;;;;25.96;48.80;102722.94;5066319;28;20041;-62
2022/07/09 09:28:55;;;;;;;2.65;1.00;;;;;;;25.97;49.05;102717.13;5063446;28;19916;-61
2022/07/09 09:31:26;;;;;;;3.00;1.02;;;;;;;26.25;47.76;102718.38;5065427;28;20029;-67
2022/07/09 09:33:54;;;;;;;3.38;1.10;;;;;;;25.63;49.39;102731.88;5044634;28;20519;-65
2022/07/09 09:36:38;;;;;;;2.78;1.02;;;;;;;26.25;48.48;102723.06;5061892;28;20032;-67
2022/07/09 09:39:18;;;;;;;4.03;1.40;;;;;;;25.94;48.18;102725.97;5059160;28;20036;-66
2022/07/09 09:41:48;;;;;;;4.15;1.80;;;;;;;26.22;48.09;102718.94;5061846;28;20076;-67
2022/07/09 09:44:17;;;;;;;3.78;0.95;;;;;;;26.40;47.48;102720.22;5066506;28;20020;-67
2022/07/09 09:46:44;;;;;;;2.55;1.02;;;;;;;26.82;45.59;102720.50;5065901;28;20078;-65
2022/07/09 09:49:14;;;;;;;5.35;1.00;;;;;;;26.86;46.39;102727.91;5048065;28;20237;-67
2022/07/09 09:51:59;;;;;;;2.95;1.20;;;;;;;26.21;47.11;102730.25;5066740;28;20507;-67
2022/07/09 09:54:25;;;;;;;4.50;1.10;;;;;;;26.78;45.48;102724.94;5065295;28;20047;-66
2022/07/09 09:56:51;;;;;;;3.92;1.00;;;;;;;26.58;45.73;102733.34;5066389;28;20025;-68
2022/07/09 09:59:17;;;;;;;2.95;1.00;;;;;;;26.21;45.74;102738.53;5067935;28;20083;-67
2022/07/09 10:01:44;;;;;;;3.50;0.60;;;;;;;25.84;46.65;102748.06;5066291;28;20036;-67
2022/07/09 10:04:11;;;;;;;1.63;0.93;;;;;;;24.82;48.68;102742.94;5066679;28;20044;-66
2022/07/09 10:06:37;;;;;;;2.53;0.82;;;;;;;24.73;49.34;102746.50;5066315;28;20040;-66
2022/07/09 10:09:04;;;;;;;2.80;1.08;;;;;;;25.34;48.33;102761.06;5064389;28;20527;-66
2022/07/09 10:11:39;;;;;;;3.60;1.05;;;;;;;25.77;46.64;102760.44;5067955;28;21440;-66
2022/07/09 10:14:05;;;;;;;6.75;1.00;;;;;;;25.66;47.08;102754.16;5070689;28;20439;-67
2022/07/09 10:16:37;;;;;;;2.53;0.70;;;;;;;25.70;46.94;102754.41;5070396;28;20046;-67
2022/07/09 10:19:03;;;;;;;1.90;0.75;;;;;;;26.11;46.10;102747.69;5068953;28;20195;-65
2022/07/09 10:21:42;;;;;;;2.30;0.73;;;;;;;26.28;45.78;102745.38;5069737;28;20493;-65
2022/07/09 10:24:11;;;;;;;2.83;0.90;;;;;;;26.00;47.06;102743.31;5068146;28;20079;-66
2022/07/09 10:26:46;;;;;;;1.80;0.68;;;;;;;26.19;45.98;102752.59;5069906;28;20434;-66
2022/07/09 10:29:26;;;;;;;5.72;1.10;;;;;;;26.17;45.20;102746.53;5070710;28;20507;-66
2022/07/09 10:31:52;;;;;;;1.90;1.00;;;;;;;26.19;45.48;102746.25;5068487;28;20190;-67
2022/07/09 10:34:31;;;;;;;3.03;0.65;;;;;;;26.54;43.26;102743.28;5070469;28;20473;-66
2022/07/09 10:37:03;;;;;;;4.60;1.55;;;;;;;26.37;43.27;102734.59;5065539;28;20083;-66
2022/07/09 10:39:29;;;;;;;2.42;0.77;;;;;;;26.58;44.18;102734.16;5064887;28;20064;-66
2022/07/09 10:42:01;;;;;;;2.22;0.80;;;;;;;26.55;43.53;102737.50;5066020;28;20129;-67
2022/07/09 10:44:28;;;;;;;2.03;0.82;;;;;;;26.35;42.95;102743.16;5067217;28;20033;-66
2022/07/09 10:46:57;;;;;;;4.20;1.05;;;;;;;25.69;44.21;102748.06;5047431;28;20029;-66
2022/07/09 10:49:25;;;;;;;1.95;0.50;;;;;;;26.72;42.03;102742.66;5065509;28;20500;-68
2022/07/09 10:51:55;;;;;;;4.60;1.52;;;;;;;26.87;41.37;102737.81;5066021;28;20052;-66
2022/07/09 10:54:20;;;;;;;2.00;0.65;;;;;;;26.20;42.91;102745.97;5064103;28;20484;-65
2022/07/09 10:56:46;;;;;;;3.75;1.63;;;;;;;26.85;41.75;102742.81;5067842;28;20028;-68
2022/07/09 10:59:16;;;;;;;5.43;1.10;;;;;;;27.36;40.48;102742.41;5064832;28;20028;-66
2022/07/09 11:01:42;;;;;;;2.55;0.80;;;;;;;27.44;39.75;102741.75;5064483;28;20033;-68
2022/07/09 11:04:08;;;;;;;1.38;0.45;;;;;;;27.37;40.84;102755.06;5065140;28;20035;-67
2022/07/09 11:06:44;;;;;;;2.30;0.80;;;;;;;28.29;39.20;102754.53;5065021;28;20056;-68
2022/07/09 11:09:13;;;;;;;2.78;0.60;;;;;;;27.50;39.03;102741.41;5064390;28;20065;-66
2022/07/09 11:11:42;;;;;;;6.28;0.80;;;;;;;28.80;37.40;102746.31;5065575;28;20036;-68
2022/07/09 11:14:07;;;;;;;1.92;0.70;;;;;;;28.09;39.18;102748.47;5066171;28;20480;-67
2022/07/09 11:16:32;;;;;;;2.92;0.70;;;;;;;27.68;38.95;102740.63;5078834;28;20113;-66